Time;durP1;ratioP1;P1;durP2;ratioP2;P2;SDS_P1;SDS_P2;PMS_P1;PMS_P2;Temp;Humidity;BMP_temperature;BMP_pressure;BME280_temperature;BME280_humidity;BME280_pressure;Samples;Min_cycle;Max_cycle;Signal;HPM_P1;HPM_P2
2021/10/16 00:02:13;;;;;;;0.40;0.30;;;;;;;6.93;100.00;101400.22;5075653;28;20445;-70
2021/10/16 00:04:39;;;;;;;0.40;0.30;;;;;;;6.89;100.00;101401.78;5075583;28;20484;-70
2021/10/16 00:07:06;;;;;;;0.40;0.30;;;;;;;6.95;100.00;101398.06;5075499;28;20870;-70
2021/10/16 00:09:33;;;;;;;0.40;0.30;;;;;;;6.96;100.00;101402.41;5075541;28;20441;-70
2021/10/16 00:12:00;;;;;;;0.40;0.27;;;;;;;6.95;100.00;101396.19;5075484;28;20433;-70
2021/10/16 00:14:26;;;;;;;0.40;0.30;;;;;;;6.89;100.00;101404.47;5075414;28;20444;-70
2021/10/16 00:16:53;;;;;;;0.40;0.20;;;;;;;6.90;100.00;101403.41;5075333;28;20461;-70
2021/10/16 00:19:19;;;;;;;0.40;0.30;;;;;;;6.90;100.00;101404.22;5075355;28;20449;-70
2021/10/16 00:21:46;;;;;;;0.40;0.30;;;;;;;6.89;100.00;101415.25;5075318;28;20502;-70
2021/10/16 00:24:13;;;;;;;0.40;0.30;;;;;;;6.96;100.00;101418.56;5075275;28;20437;-70
2021/10/16 00:26:40;;;;;;;0.40;0.20;;;;;;;6.96;100.00;101424.75;5060161;28;20517;-70
2021/10/16 00:29:07;;;;;;;0.40;0.30;;;;;;;6.91;100.00;101419.31;5055144;28;20453;-71
2021/10/16 00:31:33;;;;;;;0.40;0.30;;;;;;;6.81;100.00;101420.00;5055073;28;20446;-71
2021/10/16 00:34:00;;;;;;;0.40;0.30;;;;;;;6.81;100.00;101411.13;5055052;28;20441;-70
2021/10/16 00:36:26;;;;;;;0.50;0.40;;;;;;;6.85;100.00;101414.13;5054975;28;20454;-70
2021/10/16 00:38:53;;;;;;;0.40;0.30;;;;;;;6.83;100.00;101425.97;5054952;28;20439;-70
2021/10/16 00:41:19;;;;;;;1.90;1.80;;;;;;;6.85;100.00;101417.63;5054620;28;20952;-70
2021/10/16 00:43:47;;;;;;;0.40;0.30;;;;;;;6.79;100.00;101422.16;5054422;28;20990;-70
2021/10/16 00:46:13;;;;;;;0.40;0.30;;;;;;;6.79;100.00;101421.34;5054389;28;21052;-70
2021/10/16 00:48:40;;;;;;;0.40;0.30;;;;;;;6.77;100.00;101418.94;5054450;28;20827;-70
2021/10/16 00:51:06;;;;;;;0.40;0.30;;;;;;;6.62;100.00;101424.16;5054411;28;20446;-70
2021/10/16 00:53:34;;;;;;;0.40;0.30;;;;;;;6.67;100.00;101429.56;5054651;28;20446;-70
2021/10/16 00:56:01;;;;;;;0.40;0.30;;;;;;;6.68;100.00;101420.44;5054576;28;20468;-70
2021/10/16 00:58:27;;;;;;;0.40;0.30;;;;;;;6.71;100.00;101430.69;5054507;28;20446;-69
2021/10/16 01:00:55;;;;;;;0.40;0.30;;;;;;;6.77;100.00;101426.16;5054526;28;20434;-70
2021/10/16 01:03:22;;;;;;;0.40;0.27;;;;;;;6.79;100.00;101419.47;5054220;28;20871;-69
2021/10/16 01:05:48;;;;;;;0.40;0.30;;;;;;;6.75;100.00;101429.13;5053681;28;20576;-70
2021/10/16 01:08:15;;;;;;;0.40;0.30;;;;;;;6.80;100.00;101426.47;5054426;28;20438;-70
2021/10/16 01:10:42;;;;;;;0.40;0.30;;;;;;;6.83;100.00;101419.78;5053965;28;20940;-69
2021/10/16 01:13:08;;;;;;;0.40;0.30;;;;;;;6.79;100.00;101427.56;5054276;28;20454;-69
2021/10/16 01:15:35;;;;;;;0.40;0.30;;;;;;;6.79;100.00;101421.34;5054200;28;20434;-70
2021/10/16 01:18:03;;;;;;;0.40;0.30;;;;;;;6.81;100.00;101419.22;5054124;28;20462;-70
2021/10/16 01:20:31;;;;;;;0.40;0.27;;;;;;;6.75;100.00;101418.34;5054123;28;20450;-70
2021/10/16 01:22:59;;;;;;;0.40;0.20;;;;;;;6.74;100.00;101416.72;5054092;28;20446;-70
2021/10/16 01:25:25;;;;;;;0.40;0.30;;;;;;;6.79;100.00;101418.66;5053964;28;20482;-70
2021/10/16 01:27:52;;;;;;;0.40;0.30;;;;;;;6.80;100.00;101420.28;5054000;28;20463;-70
2021/10/16 01:30:22;;;;;;;0.40;0.30;;;;;;;6.67;100.00;101424.19;5054012;28;20438;-70
2021/10/16 01:32:49;;;;;;;0.40;0.30;;;;;;;6.58;100.00;101426.53;5053670;28;20990;-70
2021/10/16 01:35:16;;;;;;;0.40;0.20;;;;;;;6.54;100.00;101422.72;5053919;28;20504;-70
2021/10/16 01:37:45;;;;;;;3.77;3.60;;;;;;;6.56;100.00;101428.66;5053780;28;20473;-70
2021/10/16 01:40:14;;;;;;;0.40;0.30;;;;;;;6.53;100.00;101425.66;5053842;28;20446;-70
2021/10/16 01:42:42;;;;;;;0.40;0.30;;;;;;;6.48;100.00;101423.75;5053279;28;20994;-70
2021/10/16 01:45:11;;;;;;;0.40;0.20;;;;;;;6.56;100.00;101425.16;5053625;28;20488;-70
2021/10/16 01:47:52;;;;;;;0.40;0.20;;;;;;;6.56;100.00;101431.38;5053292;28;20983;-70
2021/10/16 01:50:20;;;;;;;0.40;0.30;;;;;;;6.58;100.00;101431.91;5053388;28;20434;-70
2021/10/16 01:52:46;;;;;;;0.40;0.30;;;;;;;6.56;100.00;101427.88;5053576;28;20446;-70
2021/10/16 01:55:14;;;;;;;0.40;0.30;;;;;;;6.57;100.00;101430.28;5053247;28;20950;-70
2021/10/16 01:57:41;;;;;;;0.40;0.23;;;;;;;6.60;100.00;101430.84;5053062;28;20866;-70
2021/10/16 02:00:09;;;;;;;0.40;0.30;;;;;;;6.68;100.00;101425.81;5053473;28;20553;-70
2021/10/16 02:02:36;;;;;;;0.40;0.30;;;;;;;6.72;100.00;101431.50;5053159;28;20780;-70
2021/10/16 02:05:03;;;;;;;0.40;0.30;;;;;;;6.75;100.00;101431.81;5053319;28;20453;-70
2021/10/16 02:07:29;;;;;;;0.40;0.30;;;;;;;6.75;100.00;101423.75;5053256;28;20469;-70
2021/10/16 02:09:56;;;;;;;0.40;0.30;;;;;;;6.76;100.00;101432.63;5053481;28;20442;-70
2021/10/16 02:12:23;;;;;;;0.40;0.30;;;;;;;6.69;100.00;101434.72;5053128;28;20439;-70
2021/10/16 02:14:50;;;;;;;0.40;0.30;;;;;;;6.58;100.00;101429.22;5053323;28;20442;-70
2021/10/16 02:17:16;;;;;;;0.40;0.30;;;;;;;6.67;100.00;101434.97;5052339;28;20828;-70
2021/10/16 02:19:43;;;;;;;0.40;0.30;;;;;;;6.67;100.00;101437.66;5053188;28;20434;-70
2021/10/16 02:22:09;;;;;;;0.40;0.30;;;;;;;6.67;100.00;101440.34;5053157;28;20449;-70
2021/10/16 02:24:36;;;;;;;0.40;0.30;;;;;;;6.61;100.00;101424.41;5052846;28;20940;-70
2021/10/16 02:27:02;;;;;;;0.40;0.30;;;;;;;6.52;100.00;101437.50;5052995;28;20572;-69
2021/10/16 02:29:30;;;;;;;0.40;0.30;;;;;;;6.39;100.00;101432.50;5053075;28;20442;-68
2021/10/16 02:31:56;;;;;;;0.40;0.23;;;;;;;6.32;100.00;101432.69;5053105;28;20465;-70
2021/10/16 02:34:23;;;;;;;0.40;0.20;;;;;;;6.17;100.00;101436.03;5053067;28;20442;-70
2021/10/16 02:36:49;;;;;;;0.40;0.30;;;;;;;6.20;100.00;101434.72;5052974;28;20463;-69
2021/10/16 02:39:16;;;;;;;0.40;0.30;;;;;;;6.13;100.00;101442.97;5053177;28;20445;-72
2021/10/16 02:41:42;;;;;;;0.40;0.20;;;;;;;6.12;100.00;101446.72;5052836;28;20822;-73
2021/10/16 02:44:08;;;;;;;0.40;0.23;;;;;;;6.02;100.00;101454.63;5053007;28;20430;-73
2021/10/16 02:46:36;;;;;;;0.40;0.30;;;;;;;5.92;100.00;101454.50;5052778;28;20485;-73
2021/10/16 02:49:03;;;;;;;0.40;0.30;;;;;;;5.96;100.00;101450.28;5052948;28;20446;-72
2021/10/16 02:51:29;;;;;;;0.40;0.30;;;;;;;6.01;100.00;101458.41;5052877;28;20442;-72
2021/10/16 02:53:55;;;;;;;0.40;0.20;;;;;;;6.07;100.00;101452.03;5052928;28;20446;-73
2021/10/16 02:56:22;;;;;;;0.40;0.30;;;;;;;6.07;100.00;101457.41;5062542;28;20496;-72
2021/10/16 02:58:48;;;;;;;0.40;0.30;;;;;;;6.10;100.00;101461.47;5072846;28;20869;-72
2021/10/16 03:01:15;;;;;;;0.40;0.30;;;;;;;6.07;100.00;101460.13;5072532;28;20445;-72
2021/10/16 03:03:42;;;;;;;0.40;0.30;;;;;;;6.13;100.00;101458.28;5072572;28;20494;-72
2021/10/16 03:06:09;;;;;;;0.40;0.30;;;;;;;6.19;100.00;101457.28;5072573;28;20492;-69
2021/10/16 03:08:35;;;;;;;0.40;0.20;;;;;;;6.11;100.00;101461.25;5072762;28;20488;-71
2021/10/16 03:11:02;;;;;;;0.40;0.30;;;;;;;6.13;100.00;101448.34;5072762;28;20495;-71
2021/10/16 03:13:30;;;;;;;0.40;0.30;;;;;;;6.14;100.00;101449.16;5072709;28;20457;-71
2021/10/16 03:15:56;;;;;;;0.40;0.30;;;;;;;6.19;100.00;101450.03;5072613;28;20552;-71
2021/10/16 03:18:22;;;;;;;0.40;0.20;;;;;;;6.25;100.00;101451.72;5072699;28;20448;-71
2021/10/16 03:20:50;;;;;;;0.40;0.30;;;;;;;6.22;100.00;101452.22;5072675;28;20437;-71
2021/10/16 03:23:16;;;;;;;0.40;0.30;;;;;;;6.23;100.00;101455.72;5072678;28;20445;-71
2021/10/16 03:25:43;;;;;;;0.40;0.30;;;;;;;6.24;100.00;101460.03;5072125;28;20855;-71
2021/10/16 03:28:10;;;;;;;0.40;0.30;;;;;;;6.26;100.00;101452.53;5073895;28;20433;-71
2021/10/16 03:30:37;;;;;;;0.40;0.30;;;;;;;6.37;100.00;101456.97;5076246;28;20823;-71
2021/10/16 03:33:04;;;;;;;0.40;0.20;;;;;;;6.38;100.00;101460.50;5076212;28;20456;-71
2021/10/16 03:35:30;;;;;;;0.40;0.20;;;;;;;6.31;100.00;101458.78;5075885;28;20957;-71
2021/10/16 03:37:58;;;;;;;0.40;0.30;;;;;;;6.38;100.00;101455.13;5076038;28;20465;-71
2021/10/16 03:40:25;;;;;;;0.40;0.30;;;;;;;6.39;100.00;101456.72;5075828;28;20844;-71
2021/10/16 03:42:51;;;;;;;0.40;0.30;;;;;;;6.36;100.00;101466.09;5075764;28;20479;-71
2021/10/16 03:45:20;;;;;;;0.40;0.30;;;;;;;6.32;100.00;101459.59;5076022;28;20449;-71
2021/10/16 03:47:46;;;;;;;0.40;0.27;;;;;;;6.44;100.00;101462.97;5075477;28;20516;-71
2021/10/16 03:50:13;;;;;;;0.40;0.30;;;;;;;6.52;100.00;101467.09;5075938;28;20445;-71
2021/10/16 03:52:39;;;;;;;0.40;0.30;;;;;;;6.59;100.00;101470.41;5075809;28;20449;-71
2021/10/16 03:55:08;;;;;;;0.40;0.30;;;;;;;6.58;100.00;101466.09;5075563;28;20930;-71
2021/10/16 03:57:34;;;;;;;0.40;0.27;;;;;;;6.75;100.00;101471.41;5075668;28;20480;-72
2021/10/16 04:00:01;;;;;;;0.40;0.30;;;;;;;6.85;100.00;101463.41;5075751;28;20433;-71
2021/10/16 04:02:27;;;;;;;0.40;0.20;;;;;;;6.89;100.00;101466.41;5075659;28;20441;-72
2021/10/16 04:04:54;;;;;;;0.40;0.30;;;;;;;6.94;100.00;101475.34;5075682;28;20434;-72
2021/10/16 04:07:20;;;;;;;0.40;0.30;;;;;;;6.98;100.00;101465.69;5075155;28;21025;-72
2021/10/16 04:09:47;;;;;;;0.40;0.30;;;;;;;7.07;100.00;101476.81;5075533;28;20475;-72
2021/10/16 04:12:15;;;;;;;0.40;0.27;;;;;;;7.17;100.00;101481.47;5075708;28;20445;-72
2021/10/16 04:14:41;;;;;;;0.40;0.30;;;;;;;7.23;100.00;101478.59;5069031;28;20458;-72
2021/10/16 04:17:07;;;;;;;0.40;0.20;;;;;;;7.26;100.00;101483.47;5055097;28;20469;-72
2021/10/16 04:19:34;;;;;;;0.40;0.30;;;;;;;7.36;100.00;101485.44;5055342;28;20434;-72
2021/10/16 04:22:00;;;;;;;0.40;0.30;;;;;;;7.40;100.00;101483.03;5054982;28;20927;-72
2021/10/16 04:24:27;;;;;;;0.40;0.30;;;;;;;7.41;100.00;101487.34;5055247;28;20443;-72
2021/10/16 04:26:53;;;;;;;0.40;0.30;;;;;;;7.40;100.00;101488.44;5055080;28;20494;-72
2021/10/16 04:29:24;;;;;;;0.40;0.30;;;;;;;7.33;100.00;101488.63;5054885;28;20449;-72
2021/10/16 04:31:50;;;;;;;0.40;0.30;;;;;;;7.38;100.00;101493.25;5055146;28;20476;-72
2021/10/16 04:34:17;;;;;;;0.40;0.30;;;;;;;7.36;100.00;101488.13;5055072;28;20446;-72
2021/10/16 04:36:43;;;;;;;0.40;0.30;;;;;;;7.42;100.00;101497.88;5054977;28;20462;-72
2021/10/16 04:39:09;;;;;;;52.30;3.70;;;;;;;7.48;100.00;101496.03;5054190;28;20469;-71
2021/10/16 04:41:36;;;;;;;0.40;0.30;;;;;;;7.49;100.00;101495.78;5054221;28;20943;-72
2021/10/16 04:44:05;;;;;;;0.40;0.30;;;;;;;7.48;100.00;101488.78;5054905;28;20426;-72
2021/10/16 04:46:33;;;;;;;0.40;0.30;;;;;;;7.53;100.00;101496.09;5054704;28;20482;-72
2021/10/16 04:48:59;;;;;;;0.40;0.30;;;;;;;7.57;100.00;101494.50;5054773;28;20537;-72
2021/10/16 04:51:26;;;;;;;0.40;0.30;;;;;;;7.63;100.00;101493.47;5054489;28;20850;-72
2021/10/16 04:53:52;;;;;;;0.40;0.20;;;;;;;7.68;100.00;101480.00;5054658;28;20442;-72
2021/10/16 04:56:18;;;;;;;0.40;0.30;;;;;;;7.70;100.00;101494.06;5054619;28;20683;-72
2021/10/16 04:58:45;;;;;;;0.40;0.30;;;;;;;7.72;100.00;101496.50;5054607;28;20485;-72
2021/10/16 05:01:11;;;;;;;0.40;0.30;;;;;;;7.72;100.00;101489.22;5054238;28;20938;-72
2021/10/16 05:03:39;;;;;;;0.40;0.27;;;;;;;7.72;100.00;101493.78;5054447;28;20442;-72
2021/10/16 05:06:06;;;;;;;0.40;0.27;;;;;;;7.75;100.00;101490.59;5054355;28;20469;-72
2021/10/16 05:08:32;;;;;;;0.40;0.30;;;;;;;7.77;100.00;101491.94;5054375;28;20446;-72
2021/10/16 05:10:59;;;;;;;0.40;0.20;;;;;;;7.81;100.00;101501.13;5054301;28;20443;-72
2021/10/16 05:13:25;;;;;;;0.40;0.20;;;;;;;7.84;100.00;101503.31;5054322;28;20453;-72
2021/10/16 05:15:52;;;;;;;0.40;0.30;;;;;;;7.88;100.00;101508.19;5054191;28;20469;-72
2021/10/16 05:18:21;;;;;;;0.40;0.30;;;;;;;7.91;100.00;101507.66;5054273;28;20446;-72
2021/10/16 05:20:49;;;;;;;0.40;0.30;;;;;;;7.88;100.00;101509.00;5054203;28;20446;-71
2021/10/16 05:23:16;;;;;;;0.40;0.30;;;;;;;7.84;100.00;101506.00;5053813;28;20473;-71
2021/10/16 05:25:42;;;;;;;0.40;0.30;;;;;;;7.80;100.00;101514.88;5054016;28;20443;-72
2021/10/16 05:28:09;;;;;;;0.40;0.30;;;;;;;7.77;100.00;101516.19;5054038;28;20478;-71
2021/10/16 05:30:36;;;;;;;0.40;0.30;;;;;;;7.77;100.00;101518.91;5055218;28;20443;-71
2021/10/16 05:33:02;;;;;;;0.40;0.30;;;;;;;7.72;100.00;101518.06;5053933;28;20438;-71
2021/10/16 05:35:29;;;;;;;0.40;0.30;;;;;;;7.75;100.00;101521.06;5053897;28;20449;-71
2021/10/16 05:37:57;;;;;;;0.40;0.30;;;;;;;7.71;100.00;101519.94;5053787;28;20481;-72
2021/10/16 05:40:23;;;;;;;0.40;0.30;;;;;;;7.73;100.00;101527.78;5053537;28;20940;-72
2021/10/16 05:42:50;;;;;;;0.40;0.30;;;;;;;7.72;100.00;101521.56;5053495;28;20454;-71
2021/10/16 05:45:16;;;;;;;0.40;0.30;;;;;;;7.76;100.00;101524.56;5053744;28;20438;-72
2021/10/16 05:47:43;;;;;;;0.40;0.30;;;;;;;7.77;100.00;101532.38;5053207;28;20489;-72
2021/10/16 05:50:10;;;;;;;0.40;0.30;;;;;;;7.80;100.00;101531.88;5053642;28;20438;-71
2021/10/16 05:52:37;;;;;;;0.40;0.30;;;;;;;7.87;100.00;101537.03;5053461;28;20449;-72
2021/10/16 05:55:06;;;;;;;0.40;0.30;;;;;;;7.96;100.00;101530.09;5053519;28;20450;-71
2021/10/16 05:57:33;;;;;;;0.40;0.30;;;;;;;8.00;100.00;101539.28;5053398;28;20482;-72
2021/10/16 05:59:59;;;;;;;0.40;0.30;;;;;;;8.07;100.00;101541.75;5053520;28;20501;-72
2021/10/16 06:02:25;;;;;;;0.40;0.30;;;;;;;8.08;100.00;101544.19;5053477;28;20446;-72
2021/10/16 06:04:52;;;;;;;0.40;0.30;;;;;;;8.11;100.00;101542.88;5053431;28;20450;-72
2021/10/16 06:07:18;;;;;;;0.40;0.30;;;;;;;8.14;100.00;101550.44;5052901;28;20910;-72
2021/10/16 06:09:45;;;;;;;0.40;0.30;;;;;;;8.17;100.00;101554.50;5053086;28;20430;-71
2021/10/16 06:12:12;;;;;;;0.40;0.20;;;;;;;8.13;100.00;101553.41;5053290;28;20442;-72
2021/10/16 06:14:39;;;;;;;0.40;0.30;;;;;;;8.16;100.00;101561.78;5053236;28;20439;-70
2021/10/16 06:17:05;;;;;;;0.40;0.30;;;;;;;8.18;100.00;101561.53;5053202;28;20462;-70
2021/10/16 06:19:32;;;;;;;0.40;0.30;;;;;;;8.13;100.00;101572.28;5053233;28;20442;-72
2021/10/16 06:21:58;;;;;;;0.40;0.20;;;;;;;8.09;100.00;101566.59;5053152;28;20446;-72
2021/10/16 06:24:25;;;;;;;0.40;0.30;;;;;;;8.08;100.00;101583.84;5053182;28;20497;-69
2021/10/16 06:26:52;;;;;;;1.03;1.03;;;;;;;8.10;100.00;101576.31;5053015;28;20497;-68
2021/10/16 06:29:19;;;;;;;0.40;0.30;;;;;;;8.08;100.00;101575.75;5052806;28;20955;-68
2021/10/16 06:31:46;;;;;;;0.40;0.30;;;;;;;8.08;100.00;101583.84;5053091;28;20449;-68
2021/10/16 06:34:12;;;;;;;0.50;0.40;;;;;;;8.00;100.00;101579.75;5053117;28;20438;-69
2021/10/16 06:36:39;;;;;;;0.40;0.30;;;;;;;8.02;100.00;101580.31;5052973;28;20454;-70
2021/10/16 06:39:05;;;;;;;0.40;0.27;;;;;;;8.08;100.00;101583.84;5053039;28;20457;-69
2021/10/16 06:41:32;;;;;;;0.50;0.50;;;;;;;8.12;100.00;101582.28;5052612;28;20928;-72
2021/10/16 06:43:58;;;;;;;0.40;0.20;;;;;;;8.17;100.00;101581.50;5052993;28;20779;-72
2021/10/16 06:46:26;;;;;;;0.40;0.30;;;;;;;8.23;100.00;101578.53;5052627;28;20461;-72
2021/10/16 06:48:52;;;;;;;0.40;0.30;;;;;;;8.31;100.00;101580.75;5052967;28;20449;-72
2021/10/16 06:51:19;;;;;;;0.40;0.30;;;;;;;8.32;100.00;101582.41;5053002;28;20450;-72
2021/10/16 06:53:45;;;;;;;0.40;0.27;;;;;;;8.34;100.00;101585.66;5052889;28;20442;-71
2021/10/16 06:56:12;;;;;;;0.40;0.30;;;;;;;8.35;100.00;101586.44;5052503;28;20998;-71
2021/10/16 06:58:38;;;;;;;0.40;0.30;;;;;;;8.37;100.00;101592.44;5052796;28;20434;-71
2021/10/16 07:01:04;;;;;;;0.40;0.30;;;;;;;8.39;100.00;101586.78;5052886;28;20442;-71
2021/10/16 07:03:32;;;;;;;0.40;0.30;;;;;;;8.41;100.00;101595.41;5054719;28;20442;-71
2021/10/16 07:05:59;;;;;;;0.40;0.30;;;;;;;8.34;100.00;101593.75;5056666;28;20452;-72
2021/10/16 07:08:29;;;;;;;0.40;0.30;;;;;;;8.33;100.00;101594.81;5056586;28;20481;-71
2021/10/16 07:10:55;;;;;;;0.40;0.30;;;;;;;8.42;100.00;101602.47;5056786;28;20473;-71
2021/10/16 07:13:22;;;;;;;0.40;0.30;;;;;;;8.48;100.00;101596.00;5056331;28;20449;-72
2021/10/16 07:15:48;;;;;;;0.40;0.30;;;;;;;8.53;100.00;101594.13;5056535;28;20442;-72
2021/10/16 07:18:14;;;;;;;0.40;0.30;;;;;;;8.60;100.00;101599.31;5056471;28;20446;-70
2021/10/16 07:20:42;;;;;;;0.40;0.30;;;;;;;8.64;100.00;101599.63;5056130;28;20939;-71
2021/10/16 07:23:09;;;;;;;0.40;0.33;;;;;;;8.71;100.00;101600.97;5056741;28;20438;-71
2021/10/16 07:25:35;;;;;;;0.40;0.30;;;;;;;8.79;100.00;101603.19;5056424;28;20446;-68
2021/10/16 07:28:02;;;;;;;0.40;0.30;;;;;;;8.82;100.00;101601.84;5056229;28;20486;-69
2021/10/16 07:30:28;;;;;;;0.40;0.30;;;;;;;8.94;100.00;101609.72;5056333;28;20438;-67
2021/10/16 07:32:54;;;;;;;0.40;0.30;;;;;;;9.05;100.00;101611.38;5056278;28;20841;-69
2021/10/16 07:35:21;;;;;;;0.40;0.30;;;;;;;9.10;100.00;101606.00;5055906;28;20442;-68
2021/10/16 07:37:49;;;;;;;0.40;0.30;;;;;;;9.13;100.00;101613.59;5056087;28;20462;-68
2021/10/16 07:40:15;;;;;;;0.40;0.30;;;;;;;9.17;100.00;101611.97;5056162;28;20822;-70
2021/10/16 07:42:42;;;;;;;0.40;0.30;;;;;;;9.21;100.00;101623.03;5055748;28;20818;-71
2021/10/16 07:45:10;;;;;;;0.40;0.30;;;;;;;9.21;100.00;101625.75;5056204;28;20825;-69
2021/10/16 07:47:37;;;;;;;0.40;0.20;;;;;;;9.29;100.00;101617.13;5055793;28;20490;-68
2021/10/16 07:50:04;;;;;;;0.40;0.40;;;;;;;9.39;100.00;101622.56;5055843;28;20438;-68
2021/10/16 07:52:32;;;;;;;0.40;0.30;;;;;;;9.45;100.00;101623.38;5055938;28;20442;-68
2021/10/16 07:55:00;;;;;;;0.40;0.30;;;;;;;9.43;100.00;101630.94;5055542;28;20848;-68
2021/10/16 07:57:26;;;;;;;0.40;0.30;;;;;;;9.45;100.00;101626.09;5054850;28;20469;-68
2021/10/16 07:59:53;;;;;;;0.40;0.30;;;;;;;9.37;100.00;101619.31;5053430;28;20986;-68
2021/10/16 08:02:19;;;;;;;0.40;0.20;;;;;;;9.47;100.00;101623.91;5054793;28;20446;-68
2021/10/16 08:04:46;;;;;;;0.40;0.30;;;;;;;9.56;100.00;101623.16;5055656;28;20446;-69
2021/10/16 08:07:12;;;;;;;0.40;0.30;;;;;;;9.57;100.00;101630.19;5055376;28;20849;-69
2021/10/16 08:09:38;;;;;;;0.40;0.30;;;;;;;9.62;100.00;101637.47;5055513;28;20820;-68
2021/10/16 08:12:06;;;;;;;0.40;0.30;;;;;;;9.72;100.00;101629.38;5055439;28;20438;-68
2021/10/16 08:14:33;;;;;;;0.40;0.30;;;;;;;9.81;100.00;101630.47;5055455;28;20446;-68
2021/10/16 08:16:59;;;;;;;0.40;0.30;;;;;;;9.93;100.00;101634.81;5055331;28;20470;-68
2021/10/16 08:19:26;;;;;;;0.67;0.67;;;;;;;9.92;100.00;101622.38;5055385;28;20438;-68
2021/10/16 08:21:53;;;;;;;0.40;0.20;;;;;;;10.05;100.00;101629.94;5055312;28;20449;-68
2021/10/16 08:24:19;;;;;;;0.40;0.30;;;;;;;10.15;100.00;101624.50;5055016;28;20549;-68
2021/10/16 08:26:46;;;;;;;0.40;0.30;;;;;;;10.20;100.00;101632.63;5054929;28;20451;-68
2021/10/16 08:29:14;;;;;;;0.40;0.30;;;;;;;10.23;100.00;101632.09;5055220;28;20481;-68
2021/10/16 08:31:40;;;;;;;0.50;0.40;;;;;;;10.20;100.00;101637.22;5054823;28;20455;-68
2021/10/16 08:34:07;;;;;;;0.40;0.30;;;;;;;10.22;100.00;101633.16;5055123;28;20446;-68
2021/10/16 08:36:33;;;;;;;0.40;0.30;;;;;;;10.25;100.00;101639.97;5054991;28;20466;-68
2021/10/16 08:38:59;;;;;;;0.40;0.30;;;;;;;10.31;100.00;101634.28;5055037;28;20439;-68
2021/10/16 08:41:26;;;;;;;0.40;0.30;;;;;;;10.39;100.00;101642.91;5054572;28;20951;-68
2021/10/16 08:43:52;;;;;;;0.40;0.30;;;;;;;10.45;100.00;101639.13;5054868;28;20512;-68
2021/10/16 08:46:21;;;;;;;0.40;0.30;;;;;;;10.50;100.00;101641.81;5054836;28;20811;-68
2021/10/16 08:48:48;;;;;;;0.40;0.30;;;;;;;10.55;100.00;101634.47;5054772;28;20489;-68
2021/10/16 08:51:14;;;;;;;0.40;0.30;;;;;;;10.60;100.00;101642.59;5054794;28;20437;-69
2021/10/16 08:53:40;;;;;;;0.40;0.30;;;;;;;10.70;100.00;101638.22;5054381;28;20442;-69
2021/10/16 08:56:08;;;;;;;0.40;0.30;;;;;;;10.77;100.00;101647.69;5054624;28;20473;-68
2021/10/16 08:58:36;;;;;;;0.40;0.30;;;;;;;10.86;100.00;101646.03;5054694;28;20430;-72
2021/10/16 09:01:04;;;;;;;0.40;0.30;;;;;;;10.97;100.00;101635.97;5054580;28;20500;-69
2021/10/16 09:03:33;;;;;;;0.40;0.30;;;;;;;11.11;99.34;101647.00;5054534;28;20438;-71
2021/10/16 09:06:09;;;;;;;0.40;0.30;;;;;;;11.24;98.76;101651.03;5054445;28;20449;-70
2021/10/16 09:08:41;;;;;;;0.40;0.30;;;;;;;11.39;99.30;101661.81;5054331;28;20478;-70
2021/10/16 09:11:29;;;;;;;0.40;0.30;;;;;;;11.49;99.05;101659.03;5055057;28;20450;-70
2021/10/16 09:13:59;;;;;;;0.40;0.30;;;;;;;11.60;97.09;101654.38;5072494;28;20436;-70
2021/10/16 09:16:41;;;;;;;0.40;0.30;;;;;;;11.67;97.07;101660.28;5073432;28;20461;-70
2021/10/16 09:19:12;;;;;;;0.40;0.30;;;;;;;11.85;96.42;101650.69;5071700;28;20834;-70
2021/10/16 09:21:41;;;;;;;0.40;0.30;;;;;;;11.95;95.21;101656.00;5074152;28;20440;-70
2021/10/16 09:24:14;;;;;;;0.40;0.30;;;;;;;12.00;95.13;101661.44;5073840;28;20934;-71
2021/10/16 09:26:43;;;;;;;0.40;0.30;;;;;;;12.09;94.15;101659.72;5073469;28;20477;-71
2021/10/16 09:29:11;;;;;;;0.40;0.30;;;;;;;12.18;94.00;101659.94;5073948;28;20477;-70
2021/10/16 09:31:40;;;;;;;0.40;0.20;;;;;;;12.15;91.80;101657.78;5073987;28;20852;-70
2021/10/16 09:34:09;;;;;;;0.40;0.30;;;;;;;12.13;91.46;101659.97;5073950;28;20440;-70
2021/10/16 09:36:37;;;;;;;0.40;0.30;;;;;;;12.15;92.68;101663.19;5073808;28;20461;-71
2021/10/16 09:39:05;;;;;;;0.40;0.30;;;;;;;12.31;92.37;101659.25;5073894;28;20527;-70
2021/10/16 09:41:33;;;;;;;0.40;0.30;;;;;;;12.35;90.43;101659.47;5073687;28;20446;-71
2021/10/16 09:44:00;;;;;;;0.40;0.30;;;;;;;12.34;89.96;101658.66;5073848;28;20532;-70
2021/10/16 09:46:27;;;;;;;0.40;0.30;;;;;;;12.26;88.20;101667.47;5073644;28;20465;-71
2021/10/16 09:48:53;;;;;;;0.40;0.30;;;;;;;12.15;87.91;101663.19;5073262;28;20878;-71
2021/10/16 09:51:22;;;;;;;0.40;0.30;;;;;;;12.00;87.86;101668.78;5073700;28;20498;-70
2021/10/16 09:53:51;;;;;;;0.40;0.30;;;;;;;12.22;88.84;101663.69;5073576;28;20433;-71
2021/10/16 09:56:18;;;;;;;0.40;0.30;;;;;;;12.42;87.94;101667.31;5073546;28;20493;-71
2021/10/16 09:58:44;;;;;;;0.40;0.30;;;;;;;12.58;87.12;101666.88;5073552;28;20533;-71
2021/10/16 10:01:11;;;;;;;0.40;0.30;;;;;;;12.47;84.49;101667.25;5073512;28;20441;-71
2021/10/16 10:03:41;;;;;;;0.40;0.30;;;;;;;12.41;86.11;101657.53;5068713;28;20458;-70
2021/10/16 10:06:09;;;;;;;0.40;0.30;;;;;;;12.60;87.51;101661.94;5053427;28;20458;-71
2021/10/16 10:08:38;;;;;;;0.40;0.20;;;;;;;12.75;87.49;101658.28;5056580;28;20492;-70
2021/10/16 10:11:06;;;;;;;0.40;0.30;;;;;;;12.82;85.76;101666.06;5073368;28;20445;-71
2021/10/16 10:13:35;;;;;;;0.40;0.30;;;;;;;12.77;85.06;101666.94;5073396;28;20445;-70
2021/10/16 10:16:02;;;;;;;0.40;0.30;;;;;;;12.65;85.61;101669.22;5073291;28;20835;-70
2021/10/16 10:21:25;;;;;;;0.40;0.30;;;;;;;12.73;85.75;101660.44;5011290;28;20435;-70
2021/10/16 10:23:58;;;;;;;0.40;0.30;;;;;;;12.73;85.80;101668.59;5057575;28;20456;-70
2021/10/16 10:26:27;;;;;;;0.40;0.30;;;;;;;12.63;84.44;101661.38;5073155;28;20469;-71
2021/10/16 10:28:59;;;;;;;0.40;0.30;;;;;;;12.55;83.90;101666.63;5073050;28;20477;-70
2021/10/16 10:31:51;;;;;;;0.40;0.30;;;;;;;12.37;82.07;101662.72;5073185;28;20853;-70
2021/10/16 10:34:19;;;;;;;0.40;0.30;;;;;;;12.34;80.73;101657.84;5073077;28;20477;-70
2021/10/16 10:36:48;;;;;;;0.40;0.30;;;;;;;12.45;81.20;101661.31;5072742;28;21002;-70
2021/10/16 10:40:00;;;;;;;0.40;0.30;;;;;;;12.59;80.67;101664.97;5076434;28;20434;-70
2021/10/16 10:42:50;;;;;;;0.40;0.30;;;;;;;12.68;79.78;101657.78;5040647;28;20472;-70
2021/10/16 10:45:33;;;;;;;0.40;0.30;;;;;;;12.87;81.16;101666.81;5077199;28;20429;-70
2021/10/16 10:48:03;;;;;;;0.40;0.30;;;;;;;13.10;78.45;101658.91;5076980;28;20480;-70
2021/10/16 10:50:58;;;;;;;0.40;0.20;;;;;;;13.21;78.02;101659.63;5072930;28;20450;-71
2021/10/16 10:53:33;;;;;;;0.40;0.20;;;;;;;13.32;76.96;101653.75;5021590;28;20454;-70
2021/10/16 10:56:02;;;;;;;0.40;0.30;;;;;;;13.53;75.46;101648.84;5057157;28;20437;-70
2021/10/16 10:58:58;;;;;;;0.40;0.30;;;;;;;13.58;73.08;101647.97;5075994;28;20485;-70
2021/10/16 11:01:54;;;;;;;0.40;0.30;;;;;;;13.84;73.17;101642.94;5076944;28;20434;-70
2021/10/16 11:04:49;;;;;;;0.40;0.20;;;;;;;14.04;71.71;101641.81;5076809;28;20495;-70
2021/10/16 11:07:30;;;;;;;0.40;0.20;;;;;;;14.64;71.79;101639.09;5076825;28;20476;-70
2021/10/16 11:09:58;;;;;;;0.40;0.30;;;;;;;14.96;71.56;101637.38;5076822;28;20501;-71
2021/10/16 11:12:29;;;;;;;0.40;0.20;;;;;;;15.34;69.86;101638.72;5076843;28;20449;-70
2021/10/16 11:14:58;;;;;;;0.40;0.20;;;;;;;15.31;65.34;101636.59;5076534;28;20476;-70
2021/10/16 11:17:34;;;;;;;0.40;0.23;;;;;;;15.09;67.52;101631.91;5076495;28;20476;-70
2021/10/16 11:20:00;;;;;;;0.40;0.20;;;;;;;14.94;68.98;101637.69;5076568;28;20432;-71
2021/10/16 11:22:50;;;;;;;0.40;0.23;;;;;;;14.56;66.72;101635.16;5076511;28;20441;-70
2021/10/16 11:25:19;;;;;;;0.40;0.30;;;;;;;14.21;68.71;101639.34;5076379;28;20433;-70
2021/10/16 11:28:01;;;;;;;0.40;0.30;;;;;;;14.03;67.92;101637.44;5076259;28;20468;-70
2021/10/16 11:30:30;;;;;;;0.40;0.30;;;;;;;13.93;68.63;101637.63;5077432;28;20929;-70
2021/10/16 11:33:02;;;;;;;0.40;0.30;;;;;;;13.92;69.94;101636.00;5076211;28;20479;-70